Etusivu
METAR-TAF:

METAR-TAF

Lentoasemat :

Pärnun lentoasema

Pärnu, Viro

Leveyspiiri: 58-25-09N, Pituuspiiri: 024-28-22E, korkeus merenpinnasta: 14 m

Tämänhetkinen sää

Tämä raportti tehtiin 18 tuntia ja 18 minuuttia sitten, kello 06.50 UTC
Tuuli 4 kn lännestä/luoteesta, vaihdellen lännen/lounaan ja pohjoisen/luoteen välillä
Lämpötila 20°C
Kosteus 100%
Ilmanpaine 1005 hPa
Näkyvyys: 3600 m
utua

METAR: EEPU 210650Z 30004KT 240V340 3600 BR NSC 20/20 Q1005

Aika: 04:08 (01:08 UTC)


TAF: puuttuu

Säähavainnot ja -ennusteet yli 4000 lentoasemalta (METAR- ja TAF-raportit).

Käytössä olevat sääasemat on merkitty karttaan keltaisilla ja punaisilla pisteillä.

Aseta hiiri pisteen päälle nähdäksesi sääaseman nimen.

Klikkaa sitten nähdäksesi säähavainnot ja -ennusteet.

Kartan vaihtaminen: klikkaa mustalla rastilla varustettuja vihreitä pisteitä, niin voit zoomata sisään; viivalla varustettua vihreää pistettä, niin voit zoomata ulos tai vihreitä nuolia, niin pääset viereisille kartoille.


METAR-TAF: